createdAt,value
2022-12-26T00:00:18.153Z,973.48
2022-12-26T00:00:47.440Z,973.48
2022-12-26T00:01:18.034Z,973.59
2022-12-26T00:01:48.879Z,973.59
2022-12-26T00:02:55.402Z,973.59
2022-12-26T00:03:24.751Z,973.59
2022-12-26T00:03:54.903Z,973.59
2022-12-26T00:04:49.706Z,973.79
2022-12-26T00:05:26.008Z,973.69
2022-12-26T00:05:56.732Z,973.69
2022-12-26T00:06:28.331Z,973.69
2022-12-26T00:07:00.131Z,973.69
2022-12-26T00:07:31.674Z,973.59
2022-12-26T00:08:03.168Z,973.59
2022-12-26T00:08:32.990Z,973.59
2022-12-26T00:09:04.570Z,973.59
2022-12-26T00:09:34.834Z,973.59
2022-12-26T00:10:06.782Z,973.59
2022-12-26T00:10:36.085Z,973.48
2022-12-26T00:11:07.009Z,973.48
2022-12-26T00:12:09.140Z,973.48
2022-12-26T00:12:42.113Z,973.59
2022-12-26T00:13:40.071Z,973.59
2022-12-26T00:14:14.282Z,973.48
2022-12-26T00:14:44.265Z,973.59
2022-12-26T00:15:15.212Z,973.59
2022-12-26T00:15:46.463Z,973.59
2022-12-26T00:16:16.931Z,973.69
2022-12-26T00:16:47.555Z,973.69
2022-12-26T00:17:28.428Z,973.59
2022-12-26T00:17:53.092Z,973.59
2022-12-26T00:18:23.104Z,973.59
2022-12-26T00:18:54.362Z,973.59
2022-12-26T00:19:24.110Z,973.48
2022-12-26T00:19:54.594Z,973.48
2022-12-26T00:20:25.665Z,973.48
2022-12-26T00:20:56.064Z,973.48
2022-12-26T00:21:26.910Z,973.59
2022-12-26T00:21:58.570Z,973.59
2022-12-26T00:22:28.760Z,973.59
2022-12-26T00:23:00.031Z,973.59
2022-12-26T00:24:03.824Z,973.42
2022-12-26T00:24:34.262Z,973.59
2022-12-26T00:25:05.453Z,973.59
2022-12-26T00:25:35.427Z,973.42
2022-12-26T00:26:06.211Z,973.42
2022-12-26T00:26:36.701Z,973.42
2022-12-26T00:27:38.958Z,973.42
2022-12-26T00:28:10.056Z,973.42
2022-12-26T00:28:43.791Z,973.42
2022-12-26T00:29:13.937Z,973.42
2022-12-26T00:29:46.378Z,973.42
2022-12-26T00:30:15.639Z,973.42
2022-12-26T00:30:45.322Z,973.31
2022-12-26T00:31:16.464Z,973.31
2022-12-26T00:31:47.276Z,973.31
2022-12-26T00:32:18.391Z,973.42
2022-12-26T00:32:48.980Z,973.42
2022-12-26T00:33:20.123Z,973.42
2022-12-26T00:33:53.195Z,973.42
2022-12-26T00:34:23.990Z,973.48
2022-12-26T00:34:54.726Z,973.48
2022-12-26T00:35:25.354Z,973.59
2022-12-26T00:35:55.306Z,973.59
2022-12-26T00:36:26.063Z,973.31
2022-12-26T00:36:56.766Z,973.31
2022-12-26T00:37:28.445Z,973.42
2022-12-26T00:37:58.683Z,973.42
2022-12-26T00:38:32.433Z,973.11
2022-12-26T00:39:02.410Z,973.11
2022-12-26T00:39:34.292Z,973.11
2022-12-26T00:40:05.435Z,973.11
2022-12-26T00:40:34.547Z,973.31
2022-12-26T00:41:05.829Z,973.31
2022-12-26T00:41:36.443Z,973.42
2022-12-26T00:42:07.223Z,973.42
2022-12-26T00:42:37.612Z,973.21
2022-12-26T00:43:08.754Z,973.21
2022-12-26T00:43:39.707Z,973.21
2022-12-26T00:44:11.361Z,973.21
2022-12-26T00:44:45.102Z,973.48
2022-12-26T00:45:14.944Z,973.48
2022-12-26T00:45:45.094Z,973.31
2022-12-26T00:46:15.486Z,973.48
2022-12-26T00:46:46.107Z,973.48
2022-12-26T00:47:16.761Z,973.42
2022-12-26T00:47:48.042Z,973.42
2022-12-26T00:48:19.259Z,973.48
2022-12-26T00:48:50.753Z,973.48
2022-12-26T00:49:23.245Z,973.21
2022-12-26T00:50:13.097Z,973.21
2022-12-26T00:50:28.305Z,973.42
2022-12-26T00:50:54.987Z,973.42
2022-12-26T00:51:25.363Z,973.42
2022-12-26T00:51:56.840Z,973.42
2022-12-26T00:52:27.644Z,973.31
2022-12-26T00:52:58.541Z,973.31
2022-12-26T00:53:29.715Z,973.31
2022-12-26T00:54:00.100Z,973.31
2022-12-26T00:54:30.953Z,973.21
2022-12-26T00:55:04.745Z,973.21
2022-12-26T00:55:35.543Z,973.31
2022-12-26T00:56:06.806Z,973.31
2022-12-26T00:56:36.170Z,973.48
2022-12-26T00:57:08.128Z,973.48
2022-12-26T00:57:37.183Z,973.42
2022-12-26T00:58:08.114Z,973.42
2022-12-26T00:58:38.981Z,973.21
2022-12-26T00:59:12.495Z,973.21
2022-12-26T00:59:41.069Z,973.31
2022-12-26T01:00:13.729Z,973.31
2022-12-26T01:00:45.540Z,973.21
2022-12-26T01:01:15.882Z,973.31
2022-12-26T01:01:45.425Z,973.31
2022-12-26T01:02:16.471Z,973.31
2022-12-26T01:02:47.405Z,973.31
2022-12-26T01:03:17.896Z,973.21
2022-12-26T01:03:49.010Z,973.21
2022-12-26T01:04:20.055Z,973.31
2022-12-26T01:04:50.826Z,973.31
2022-12-26T01:05:24.433Z,973.11
2022-12-26T01:05:55.084Z,973.11
2022-12-26T01:06:26.058Z,973.42
2022-12-26T01:06:55.581Z,973.42
2022-12-26T01:07:26.870Z,973.21
2022-12-26T01:08:21.030Z,973.21
2022-12-26T01:09:04.337Z,973.48
2022-12-26T01:09:30.601Z,973.31
2022-12-26T01:10:03.257Z,973.31
2022-12-26T01:10:34.163Z,973.21
2022-12-26T01:11:25.009Z,973.21
2022-12-26T01:11:36.405Z,973.21
2022-12-26T01:12:06.960Z,973.21
2022-12-26T01:12:46.432Z,973.31
2022-12-26T01:13:07.221Z,973.31
2022-12-26T01:13:38.794Z,973.21
2022-12-26T01:14:09.513Z,973.21
2022-12-26T01:14:40.735Z,973.11
2022-12-26T01:15:14.225Z,973.11
2022-12-26T01:15:45.254Z,973.42
2022-12-26T01:16:16.312Z,973.42
2022-12-26T01:16:46.198Z,973.21
2022-12-26T01:17:16.894Z,973.21
2022-12-26T01:17:47.246Z,973.21
2022-12-26T01:18:17.870Z,973.31
2022-12-26T01:18:48.574Z,973.31
2022-12-26T01:19:19.771Z,973.42
2022-12-26T01:19:50.585Z,973.42
2022-12-26T01:20:21.782Z,973.31
2022-12-26T01:20:55.680Z,973.31
2022-12-26T01:21:26.216Z,973.11
2022-12-26T01:21:56.072Z,973.11
2022-12-26T01:22:26.275Z,973.31
2022-12-26T01:22:58.108Z,973.31
2022-12-26T01:23:37.098Z,973.31
2022-12-26T01:23:59.043Z,973.31
2022-12-26T01:24:29.168Z,973.21
2022-12-26T01:25:00.599Z,973.21
2022-12-26T01:25:31.330Z,973.21
2022-12-26T01:26:16.616Z,973.21
2022-12-26T01:26:36.373Z,973.31
2022-12-26T01:27:06.324Z,973.31
2022-12-26T01:27:37.372Z,973.21
2022-12-26T01:28:07.502Z,973.21
2022-12-26T01:28:37.391Z,973.42
2022-12-26T01:29:08.799Z,973.42
2022-12-26T01:30:16.390Z,973.21
2022-12-26T01:30:42.013Z,973.42
2022-12-26T01:31:13.369Z,973.42
2022-12-26T01:31:46.469Z,973.42
2022-12-26T01:32:17.179Z,973.42
2022-12-26T01:32:47.625Z,973.42
2022-12-26T01:33:17.539Z,973.42
2022-12-26T01:33:47.995Z,973.42
2022-12-26T01:34:18.982Z,973.42
2022-12-26T01:34:49.222Z,973.42
2022-12-26T01:35:20.785Z,973.42
2022-12-26T01:36:02.125Z,973.42
2022-12-26T01:36:27.051Z,973.42
2022-12-26T01:36:56.891Z,973.42
2022-12-26T01:37:29.737Z,973.31
2022-12-26T01:37:57.775Z,973.31
2022-12-26T01:38:27.899Z,973.42
2022-12-26T01:38:58.536Z,973.42
2022-12-26T01:39:35.468Z,973.31
2022-12-26T01:39:59.077Z,973.31
2022-12-26T01:40:32.480Z,973.42
2022-12-26T01:41:02.135Z,973.42
2022-12-26T01:41:36.331Z,973.42
2022-12-26T01:42:06.359Z,973.42
2022-12-26T01:42:38.494Z,973.31
2022-12-26T01:43:37.681Z,973.48
2022-12-26T01:44:08.868Z,973.48
2022-12-26T01:44:39.584Z,973.42
2022-12-26T01:45:12.248Z,973.42
2022-12-26T01:45:41.003Z,973.31
2022-12-26T01:46:11.960Z,973.31
2022-12-26T01:46:43.475Z,973.21
2022-12-26T01:47:16.604Z,973.21
2022-12-26T01:47:47.055Z,973.31
2022-12-26T01:48:17.430Z,973.42
2022-12-26T01:48:49.786Z,973.42
2022-12-26T01:49:18.417Z,973.42
2022-12-26T01:49:49.042Z,973.42
2022-12-26T01:50:20.830Z,973.31
2022-12-26T01:50:51.004Z,973.31
2022-12-26T01:51:22.056Z,973.31
2022-12-26T01:51:54.442Z,973.31
2022-12-26T01:52:26.235Z,973.21
2022-12-26T01:52:57.553Z,973.21
2022-12-26T01:53:28.130Z,973.42
2022-12-26T01:54:39.246Z,973.42
2022-12-26T01:54:59.342Z,973.31
2022-12-26T01:55:30.238Z,973.48
2022-12-26T01:56:02.531Z,973.48
2022-12-26T01:56:32.203Z,973.42
2022-12-26T01:57:03.011Z,973.42
2022-12-26T01:57:36.187Z,973.59
2022-12-26T01:58:06.885Z,973.59
2022-12-26T01:59:08.487Z,973.48
2022-12-26T01:59:37.982Z,973.42
2022-12-26T02:00:12.814Z,973.42
2022-12-26T02:00:41.686Z,973.59
2022-12-26T02:01:20.501Z,973.59
2022-12-26T02:01:47.515Z,973.42
2022-12-26T02:02:13.541Z,973.42
2022-12-26T02:02:43.274Z,973.48
2022-12-26T02:03:17.532Z,973.59
2022-12-26T02:03:48.222Z,973.59
2022-12-26T02:04:18.770Z,973.59
2022-12-26T02:04:49.452Z,973.59
2022-12-26T02:05:28.687Z,973.31
2022-12-26T02:05:52.889Z,973.31
2022-12-26T02:06:22.452Z,973.59
2022-12-26T02:06:52.247Z,973.59
2022-12-26T02:07:22.308Z,973.59
2022-12-26T02:07:53.875Z,973.59
2022-12-26T02:08:26.442Z,973.59
2022-12-26T02:08:58.466Z,973.59
2022-12-26T02:09:28.422Z,973.69
2022-12-26T02:09:59.542Z,973.69
2022-12-26T02:10:29.967Z,973.69
2022-12-26T02:11:00.028Z,973.69
2022-12-26T02:11:31.451Z,973.48
2022-12-26T02:12:33.961Z,973.48
2022-12-26T02:13:05.092Z,973.59
2022-12-26T02:13:37.426Z,973.79
2022-12-26T02:14:21.581Z,973.59
2022-12-26T02:14:38.617Z,973.59
2022-12-26T02:15:09.463Z,973.59
2022-12-26T02:15:39.516Z,973.59
2022-12-26T02:16:10.134Z,973.59
2022-12-26T02:16:41.389Z,973.69
2022-12-26T02:17:13.029Z,973.69
2022-12-26T02:17:42.534Z,973.69
2022-12-26T02:18:48.205Z,973.59
2022-12-26T02:19:17.992Z,973.69
2022-12-26T02:19:49.383Z,973.69
2022-12-26T02:20:19.863Z,973.59
2022-12-26T02:20:49.931Z,973.59
2022-12-26T02:21:20.417Z,973.48
2022-12-26T02:21:50.598Z,973.48
2022-12-26T02:22:21.825Z,973.59
2022-12-26T02:22:53.720Z,973.59
2022-12-26T02:23:24.107Z,973.48
2022-12-26T02:23:56.075Z,973.48
2022-12-26T02:24:27.738Z,973.42
2022-12-26T02:24:59.085Z,973.42
2022-12-26T02:25:29.274Z,973.42
2022-12-26T02:25:59.179Z,973.42
2022-12-26T02:26:30.036Z,973.42
2022-12-26T02:27:01.204Z,973.42
2022-12-26T02:27:32.327Z,973.48
2022-12-26T02:28:03.119Z,973.48
2022-12-26T02:28:34.049Z,973.48
2022-12-26T02:29:04.936Z,973.48
2022-12-26T02:30:08.942Z,973.42
2022-12-26T02:30:39.979Z,973.31
2022-12-26T02:31:09.802Z,973.31
2022-12-26T02:31:40.486Z,973.31
2022-12-26T02:32:11.907Z,973.31
2022-12-26T02:32:42.927Z,973.42
2022-12-26T02:33:13.332Z,973.42
2022-12-26T02:33:44.113Z,973.79
2022-12-26T02:34:16.507Z,973.59
2022-12-26T02:34:48.318Z,973.59
2022-12-26T02:35:19.132Z,973.69
2022-12-26T02:35:49.441Z,973.69
2022-12-26T02:36:19.882Z,973.59
2022-12-26T02:36:50.347Z,973.59
2022-12-26T02:37:21.482Z,973.59
2022-12-26T02:37:52.798Z,973.59
2022-12-26T02:38:23.718Z,973.48
2022-12-26T02:38:54.341Z,973.48
2022-12-26T02:39:44.763Z,973.48
2022-12-26T02:39:58.154Z,973.48
2022-12-26T02:40:29.271Z,973.48
2022-12-26T02:40:59.657Z,973.48
2022-12-26T02:41:29.098Z,973.59
2022-12-26T02:42:00.320Z,973.59
2022-12-26T02:42:30.959Z,973.59
2022-12-26T02:43:03.039Z,973.59
2022-12-26T02:43:32.977Z,973.31
2022-12-26T02:44:04.075Z,973.31
2022-12-26T02:44:38.868Z,973.31
2022-12-26T02:45:10.039Z,973.31
2022-12-26T02:45:40.565Z,973.31
2022-12-26T02:46:10.267Z,973.31
2022-12-26T02:46:40.228Z,973.42
2022-12-26T02:47:11.073Z,973.42
2022-12-26T02:47:41.303Z,973.21
2022-12-26T02:48:11.958Z,973.21
2022-12-26T02:48:43.367Z,973.42
2022-12-26T02:49:13.533Z,973.42
2022-12-26T02:49:44.943Z,973.21
2022-12-26T02:50:20.328Z,973.42
2022-12-26T02:50:49.813Z,973.42
2022-12-26T02:51:19.808Z,973.48
2022-12-26T02:51:50.523Z,973.48
2022-12-26T02:52:20.608Z,973.42
2022-12-26T02:52:51.523Z,973.42
2022-12-26T02:53:24.491Z,973.31
2022-12-26T02:53:53.398Z,973.31
2022-12-26T02:54:24.266Z,973.42
2022-12-26T02:54:54.977Z,973.42
2022-12-26T02:55:27.818Z,973.42
2022-12-26T02:56:01.005Z,973.42
2022-12-26T02:56:30.701Z,973.69
2022-12-26T02:57:00.340Z,973.69
2022-12-26T02:57:30.453Z,973.48
2022-12-26T02:58:01.956Z,973.48
2022-12-26T02:58:32.178Z,973.42
2022-12-26T02:59:03.262Z,973.42
2022-12-26T02:59:55.738Z,973.69
2022-12-26T03:00:06.949Z,973.69
2022-12-26T03:00:36.144Z,973.42
2022-12-26T03:01:07.919Z,973.42
2022-12-26T03:01:41.041Z,973.42
2022-12-26T03:02:11.860Z,973.42
2022-12-26T03:02:41.580Z,973.42
2022-12-26T03:03:12.012Z,973.42
2022-12-26T03:03:41.977Z,973.48
2022-12-26T03:04:13.588Z,973.48
2022-12-26T03:04:44.123Z,973.79
2022-12-26T03:05:15.282Z,973.69
2022-12-26T03:05:49.497Z,973.69
2022-12-26T03:06:17.936Z,973.59
2022-12-26T03:06:51.176Z,973.59
2022-12-26T03:07:36.357Z,973.79
2022-12-26T03:07:50.952Z,973.79
2022-12-26T03:08:21.611Z,973.69
2022-12-26T03:08:51.892Z,973.69
2022-12-26T03:09:23.542Z,973.79
2022-12-26T03:09:54.102Z,973.79
2022-12-26T03:10:25.128Z,973.59
2022-12-26T03:10:55.876Z,973.59
2022-12-26T03:11:29.401Z,973.59
2022-12-26T03:11:59.828Z,973.59
2022-12-26T03:12:31.479Z,973.79
2022-12-26T03:13:03.186Z,973.79
2022-12-26T03:13:31.871Z,973.59
2022-12-26T03:14:03.267Z,973.59
2022-12-26T03:14:32.981Z,973.59
2022-12-26T03:15:05.265Z,973.59
2022-12-26T03:15:35.998Z,973.69
2022-12-26T03:16:23.774Z,973.69
2022-12-26T03:16:37.344Z,973.69
2022-12-26T03:17:10.503Z,973.69
2022-12-26T03:17:40.985Z,973.59
2022-12-26T03:18:58.245Z,973.42
2022-12-26T03:19:12.248Z,973.42
2022-12-26T03:19:42.757Z,973.59
2022-12-26T03:20:14.037Z,973.59
2022-12-26T03:20:44.928Z,973.48
2022-12-26T03:21:19.734Z,973.59
2022-12-26T03:21:46.495Z,973.59
2022-12-26T03:22:20.160Z,973.69
2022-12-26T03:22:51.011Z,973.69
2022-12-26T03:23:21.475Z,973.59
2022-12-26T03:23:51.956Z,973.59
2022-12-26T03:24:22.171Z,973.48
2022-12-26T03:24:52.578Z,973.48
2022-12-26T03:25:24.058Z,973.59
2022-12-26T03:25:54.679Z,973.59
2022-12-26T03:26:25.267Z,973.79
2022-12-26T03:26:56.198Z,973.79
2022-12-26T03:27:28.353Z,973.69
2022-12-26T03:28:01.607Z,973.69
2022-12-26T03:28:30.698Z,973.48
2022-12-26T03:29:03.300Z,973.48
2022-12-26T03:29:33.163Z,973.69
2022-12-26T03:30:08.311Z,973.69
2022-12-26T03:30:34.232Z,973.42
2022-12-26T03:31:05.244Z,973.42
2022-12-26T03:31:35.923Z,973.69
2022-12-26T03:32:08.833Z,973.69
2022-12-26T03:32:41.045Z,973.69
2022-12-26T03:33:11.598Z,973.69
2022-12-26T03:33:41.081Z,973.59
2022-12-26T03:34:12.132Z,973.59
2022-12-26T03:34:43.366Z,973.69
2022-12-26T03:35:13.331Z,973.69
2022-12-26T03:35:43.792Z,973.69
2022-12-26T03:36:14.489Z,973.69
2022-12-26T03:36:45.823Z,973.69
2022-12-26T03:37:17.493Z,973.69
2022-12-26T03:37:50.434Z,973.69
2022-12-26T03:38:20.855Z,973.79
2022-12-26T03:38:51.567Z,973.79
2022-12-26T03:39:21.889Z,973.89
2022-12-26T03:39:53.017Z,973.89
2022-12-26T03:40:53.553Z,973.79
2022-12-26T03:41:24.997Z,973.99
2022-12-26T03:41:55.419Z,973.99
2022-12-26T03:42:35.591Z,973.89
2022-12-26T03:43:00.305Z,973.89
2022-12-26T03:43:31.153Z,973.69
2022-12-26T03:44:01.708Z,973.69
2022-12-26T03:44:31.678Z,973.69
2022-12-26T03:45:03.322Z,973.69
2022-12-26T03:45:32.823Z,973.79
2022-12-26T03:46:04.059Z,973.79
2022-12-26T03:46:34.820Z,973.99
2022-12-26T03:47:06.005Z,973.99
2022-12-26T03:47:37.287Z,973.99
2022-12-26T03:48:08.179Z,973.99
2022-12-26T03:48:40.754Z,973.89
2022-12-26T03:49:12.314Z,973.89
2022-12-26T03:49:41.807Z,974.19
2022-12-26T03:50:12.916Z,974.19
2022-12-26T03:50:42.651Z,973.79
2022-12-26T03:51:13.986Z,973.79
2022-12-26T03:51:44.897Z,973.89
2022-12-26T03:52:16.563Z,973.69
2022-12-26T03:52:46.719Z,973.69
2022-12-26T03:53:19.532Z,973.69
2022-12-26T03:54:02.360Z,973.69
2022-12-26T03:54:21.742Z,973.89
2022-12-26T03:54:51.995Z,973.89
2022-12-26T03:55:23.501Z,973.69
2022-12-26T03:56:24.050Z,973.79
2022-12-26T03:56:54.372Z,973.79
2022-12-26T03:57:25.722Z,973.89
2022-12-26T03:57:57.301Z,973.89
2022-12-26T03:58:27.534Z,973.79
2022-12-26T03:59:01.145Z,973.79
2022-12-26T03:59:31.860Z,973.69
2022-12-26T04:00:02.958Z,973.69
2022-12-26T04:00:33.192Z,973.89
2022-12-26T04:01:03.394Z,973.89
2022-12-26T04:01:34.686Z,973.89
2022-12-26T04:02:04.988Z,973.89
2022-12-26T04:02:35.608Z,973.79
2022-12-26T04:03:06.534Z,973.79
2022-12-26T04:03:40.990Z,973.48
2022-12-26T04:04:11.297Z,973.48
2022-12-26T04:04:41.727Z,973.69
2022-12-26T04:05:13.298Z,973.69
2022-12-26T04:05:42.755Z,973.79
2022-12-26T04:06:12.732Z,973.79
2022-12-26T04:06:44.109Z,973.59
2022-12-26T04:07:14.936Z,973.69
2022-12-26T04:07:56.172Z,973.69
2022-12-26T04:08:19.148Z,973.59
2022-12-26T04:08:47.669Z,973.59
2022-12-26T04:09:20.691Z,973.69
2022-12-26T04:09:52.777Z,973.69
2022-12-26T04:10:22.383Z,973.59
2022-12-26T04:10:52.698Z,973.59
2022-12-26T04:11:22.821Z,973.59
2022-12-26T04:11:54.153Z,973.59
2022-12-26T04:12:25.263Z,973.48
2022-12-26T04:13:13.321Z,973.48
2022-12-26T04:13:27.079Z,973.42
2022-12-26T04:13:58.147Z,973.42
2022-12-26T04:14:31.111Z,973.59
2022-12-26T04:15:02.608Z,973.59
2022-12-26T04:15:34.106Z,973.42
2022-12-26T04:16:03.105Z,973.42
2022-12-26T04:16:33.156Z,973.48
2022-12-26T04:17:04.032Z,973.48
2022-12-26T04:17:34.988Z,973.69
2022-12-26T04:18:06.594Z,973.69
2022-12-26T04:18:36.756Z,973.59
2022-12-26T04:19:43.150Z,973.59
2022-12-26T04:19:46.540Z,973.48
2022-12-26T04:20:13.789Z,973.48
2022-12-26T04:20:42.858Z,973.59
2022-12-26T04:21:13.086Z,973.59
2022-12-26T04:21:43.452Z,973.42
2022-12-26T04:22:32.968Z,973.48
2022-12-26T04:22:45.078Z,973.48
2022-12-26T04:23:15.690Z,973.79
2022-12-26T04:23:47.002Z,973.79
2022-12-26T04:24:17.331Z,973.42
2022-12-26T04:24:49.482Z,973.42
2022-12-26T04:25:22.194Z,973.69
2022-12-26T04:26:24.912Z,973.69
2022-12-26T04:26:53.347Z,973.69
2022-12-26T04:27:24.983Z,973.69
2022-12-26T04:27:55.152Z,973.69
2022-12-26T04:28:25.730Z,973.69
2022-12-26T04:28:56.874Z,973.69
2022-12-26T04:29:27.762Z,973.99
2022-12-26T04:30:03.348Z,973.99
2022-12-26T04:30:32.764Z,973.69
2022-12-26T04:31:03.848Z,973.69
2022-12-26T04:31:33.507Z,973.69
2022-12-26T04:36:42.807Z,973.89
2022-12-26T04:37:12.326Z,973.89
2022-12-26T04:37:43.809Z,973.89
2022-12-26T04:38:57.350Z,973.69
2022-12-26T04:39:23.255Z,973.89
2022-12-26T04:39:48.359Z,973.89
2022-12-26T04:40:36.232Z,973.99
2022-12-26T04:40:52.104Z,973.99
2022-12-26T04:41:23.216Z,973.79
2022-12-26T04:41:55.039Z,973.79
2022-12-26T04:42:26.106Z,973.89
2022-12-26T04:42:55.852Z,973.89
2022-12-26T04:43:47.244Z,973.89
2022-12-26T04:43:56.004Z,973.89
2022-12-26T04:44:27.140Z,973.69
2022-12-26T04:44:58.015Z,973.69
2022-12-26T04:45:30.176Z,973.89
2022-12-26T04:46:03.625Z,973.89
2022-12-26T04:46:35.801Z,973.89
2022-12-26T04:47:06.702Z,973.89
2022-12-26T04:47:35.825Z,973.89
2022-12-26T04:48:06.104Z,973.89
2022-12-26T04:48:35.450Z,973.89
2022-12-26T04:49:06.563Z,973.89
2022-12-26T04:49:37.386Z,974.09
2022-12-26T04:50:08.721Z,974.09
2022-12-26T04:50:39.974Z,973.79
2022-12-26T04:51:10.743Z,973.79
2022-12-26T04:51:44.910Z,973.79
2022-12-26T04:52:14.862Z,973.79
2022-12-26T04:52:46.028Z,973.69
2022-12-26T04:53:15.337Z,973.89
2022-12-26T04:53:46.521Z,973.89
2022-12-26T04:54:16.433Z,973.89
2022-12-26T04:54:47.435Z,973.89
2022-12-26T04:55:18.504Z,973.89
2022-12-26T04:55:49.282Z,973.89
2022-12-26T04:56:20.840Z,974.19
2022-12-26T04:56:55.316Z,974.19
2022-12-26T04:57:24.827Z,974.09
2022-12-26T04:57:55.832Z,974.09
2022-12-26T04:58:41.744Z,973.79
2022-12-26T04:59:26.792Z,973.89
2022-12-26T04:59:57.152Z,973.89
2022-12-26T05:00:29.315Z,973.69
2022-12-26T05:01:00.522Z,973.69
2022-12-26T05:01:32.807Z,973.89
2022-12-26T05:02:03.382Z,973.89
2022-12-26T05:02:34.988Z,973.69
2022-12-26T05:03:03.283Z,973.69
2022-12-26T05:03:34.661Z,973.48
2022-12-26T05:04:11.948Z,973.48
2022-12-26T05:04:37.795Z,973.69
2022-12-26T05:05:08.163Z,973.69
2022-12-26T05:05:38.405Z,973.69
2022-12-26T05:06:11.839Z,973.69
2022-12-26T05:06:42.056Z,973.59
2022-12-26T05:07:11.543Z,973.59
2022-12-26T05:07:43.222Z,973.59
2022-12-26T05:08:13.229Z,973.59
2022-12-26T05:08:44.722Z,973.48
2022-12-26T05:09:15.387Z,973.59
2022-12-26T05:09:46.671Z,973.59
2022-12-26T05:10:17.950Z,973.42
2022-12-26T05:10:48.052Z,973.42
2022-12-26T05:11:21.995Z,973.42
2022-12-26T05:11:52.015Z,973.42
2022-12-26T05:12:23.304Z,973.48
2022-12-26T05:12:55.830Z,973.48
2022-12-26T05:13:24.005Z,973.42
2022-12-26T05:13:55.005Z,973.42
2022-12-26T05:14:25.465Z,973.59
2022-12-26T05:14:56.392Z,973.59
2022-12-26T05:15:28.991Z,973.59
2022-12-26T05:16:15.456Z,973.48
2022-12-26T05:16:31.352Z,973.48
2022-12-26T05:17:01.742Z,973.48
2022-12-26T05:17:32.882Z,973.48
2022-12-26T05:18:02.865Z,973.48
2022-12-26T05:18:35.014Z,973.42
2022-12-26T05:19:04.356Z,973.42
2022-12-26T05:19:35.107Z,973.42
2022-12-26T05:20:07.007Z,973.42
2022-12-26T05:20:38.746Z,973.31
2022-12-26T05:21:09.444Z,973.31
2022-12-26T05:21:41.820Z,973.42
2022-12-26T05:22:12.011Z,973.42
2022-12-26T05:22:41.635Z,973.42
2022-12-26T05:23:14.126Z,973.42
2022-12-26T05:23:44.440Z,973.42
2022-12-26T05:24:14.157Z,973.48
2022-12-26T05:24:45.979Z,973.48
2022-12-26T05:25:18.461Z,973.42
2022-12-26T05:25:49.419Z,973.42
2022-12-26T05:26:17.765Z,973.59
2022-12-26T05:26:52.489Z,973.59
2022-12-26T05:27:23.733Z,973.59
2022-12-26T05:27:53.623Z,973.59
2022-12-26T05:28:23.561Z,973.59
2022-12-26T05:28:53.899Z,973.59
2022-12-26T05:29:24.805Z,973.59
2022-12-26T05:29:55.735Z,973.59
2022-12-26T05:30:28.265Z,973.48
2022-12-26T05:30:57.998Z,973.48
2022-12-26T05:31:35.074Z,973.89
2022-12-26T05:32:01.181Z,973.89
2022-12-26T05:32:32.958Z,973.48
2022-12-26T05:33:04.480Z,973.48
2022-12-26T05:33:32.400Z,973.89
2022-12-26T05:34:03.560Z,973.89
2022-12-26T05:34:34.759Z,973.69
2022-12-26T05:35:05.800Z,973.69
2022-12-26T05:35:38.202Z,973.59
2022-12-26T05:36:07.648Z,973.59
2022-12-26T05:36:38.458Z,973.79
2022-12-26T05:37:10.762Z,973.79
2022-12-26T05:37:42.922Z,973.89
2022-12-26T05:38:13.486Z,973.89
2022-12-26T05:38:43.969Z,973.79
2022-12-26T05:39:15.182Z,973.79
2022-12-26T05:39:45.384Z,973.89
2022-12-26T05:40:18.109Z,973.79
2022-12-26T05:40:48.430Z,973.79
2022-12-26T05:41:17.327Z,973.89
2022-12-26T05:41:49.959Z,973.89
2022-12-26T05:42:19.053Z,973.99
2022-12-26T05:42:54.304Z,973.99
2022-12-26T05:43:24.793Z,973.89
2022-12-26T05:44:25.023Z,973.89
2022-12-26T05:44:54.575Z,973.89
2022-12-26T05:45:27.505Z,973.79
2022-12-26T05:45:57.755Z,973.79
2022-12-26T05:46:27.225Z,973.79
2022-12-26T05:46:58.739Z,973.79
2022-12-26T05:48:03.081Z,973.79
2022-12-26T05:48:32.211Z,973.69
2022-12-26T05:49:02.924Z,973.69
2022-12-26T05:49:34.040Z,973.99
2022-12-26T05:50:05.236Z,973.99
2022-12-26T05:50:38.157Z,973.79
2022-12-26T05:51:06.614Z,973.79
2022-12-26T05:51:37.203Z,973.89
2022-12-26T05:52:08.617Z,973.89
2022-12-26T05:52:39.326Z,973.69
2022-12-26T05:53:14.352Z,973.69
2022-12-26T05:54:00.010Z,973.89
2022-12-26T05:54:14.207Z,973.89
2022-12-26T05:54:51.003Z,973.69
2022-12-26T05:55:17.330Z,973.79
2022-12-26T05:55:48.510Z,973.79
2022-12-26T05:56:16.376Z,973.79
2022-12-26T05:56:51.334Z,973.79
2022-12-26T05:57:19.144Z,973.99
2022-12-26T05:57:49.284Z,973.99
2022-12-26T05:58:22.122Z,973.89
2022-12-26T05:58:54.551Z,973.89
2022-12-26T05:59:24.034Z,974.09
2022-12-26T05:59:54.361Z,974.09
2022-12-26T06:00:26.577Z,974.19
2022-12-26T06:00:55.763Z,974.19
2022-12-26T06:01:26.492Z,974.19
2022-12-26T06:01:56.911Z,974.19
2022-12-26T06:02:28.114Z,974.09
2022-12-26T06:03:23.046Z,974.09
2022-12-26T06:03:34.247Z,973.99
2022-12-26T06:04:03.625Z,973.99
2022-12-26T06:04:37.878Z,974.09
2022-12-26T06:05:05.037Z,974.09
2022-12-26T06:05:34.397Z,974.09
2022-12-26T06:06:05.288Z,974.09
2022-12-26T06:06:36.151Z,973.99
2022-12-26T06:07:07.855Z,973.99
2022-12-26T06:07:38.375Z,974.19
2022-12-26T06:08:23.350Z,973.99
2022-12-26T06:08:43.648Z,973.99
2022-12-26T06:09:12.531Z,973.99
2022-12-26T06:09:43.794Z,973.89
2022-12-26T06:10:14.254Z,973.89
2022-12-26T06:10:44.935Z,974.09
2022-12-26T06:11:15.595Z,973.89
2022-12-26T06:11:48.902Z,973.89
2022-12-26T06:12:17.476Z,973.99
2022-12-26T06:12:48.975Z,973.99
2022-12-26T06:13:23.166Z,973.89
2022-12-26T06:13:53.249Z,973.89
2022-12-26T06:14:23.779Z,973.89
2022-12-26T06:14:53.948Z,973.89
2022-12-26T06:15:25.092Z,973.79
2022-12-26T06:15:54.310Z,973.79
2022-12-26T06:16:26.192Z,973.89
2022-12-26T06:16:56.550Z,973.89
2022-12-26T06:17:27.847Z,973.99
2022-12-26T06:18:03.924Z,973.99
2022-12-26T06:18:33.876Z,973.99
2022-12-26T06:19:03.467Z,973.99
2022-12-26T06:19:33.859Z,973.79
2022-12-26T06:20:04.104Z,973.79
2022-12-26T06:20:34.494Z,973.89
2022-12-26T06:21:05.171Z,973.89
2022-12-26T06:21:35.840Z,974.09
2022-12-26T06:22:06.301Z,974.09
2022-12-26T06:22:38.674Z,974.19
2022-12-26T06:23:13.302Z,974.19
2022-12-26T06:23:39.357Z,973.99
2022-12-26T06:24:13.698Z,973.99
2022-12-26T06:24:43.926Z,973.99
2022-12-26T06:25:14.697Z,973.99
2022-12-26T06:25:45.010Z,974.19
2022-12-26T06:26:15.376Z,973.89
2022-12-26T06:26:45.721Z,973.89
2022-12-26T06:27:17.317Z,974.09
2022-12-26T06:27:47.756Z,974.09
2022-12-26T06:28:18.985Z,973.79
2022-12-26T06:28:50.044Z,973.79
2022-12-26T06:29:24.033Z,973.79
2022-12-26T06:29:54.243Z,973.79
2022-12-26T06:30:26.104Z,974.19
2022-12-26T06:30:54.084Z,974.19
2022-12-26T06:31:24.911Z,974.09
2022-12-26T06:31:56.208Z,974.09
2022-12-26T06:32:26.589Z,973.89
2022-12-26T06:32:58.222Z,973.89
2022-12-26T06:33:28.926Z,973.89
2022-12-26T06:34:00.361Z,973.89
2022-12-26T06:34:32.006Z,973.89
2022-12-26T06:35:04.452Z,973.89
2022-12-26T06:35:34.512Z,974.19
2022-12-26T06:36:05.481Z,974.19
2022-12-26T06:36:35.368Z,974.09
2022-12-26T06:37:06.012Z,974.09
2022-12-26T06:37:36.874Z,974.09
2022-12-26T06:38:07.403Z,974.09
2022-12-26T06:38:38.358Z,973.99
2022-12-26T06:39:10.755Z,973.99
2022-12-26T06:39:43.362Z,974.19
2022-12-26T06:40:14.779Z,974.19
2022-12-26T06:40:45.385Z,973.99
2022-12-26T06:41:15.235Z,973.99
2022-12-26T06:41:45.045Z,973.89
2022-12-26T06:42:16.815Z,974.09
2022-12-26T06:42:46.962Z,974.09